sensor_id;sensor_type;location;lat;lon;timestamp;P1;durP1;ratioP1;P2;durP2;ratioP2
51288;SDS011;37372;52.294;5.152;2023-04-03T00:01:38;3.00;;;1.00;;
51288;SDS011;37372;52.294;5.152;2023-04-03T00:04:08;2.03;;;0.90;;
51288;SDS011;37372;52.294;5.152;2023-04-03T00:06:41;3.20;;;1.10;;
51288;SDS011;37372;52.294;5.152;2023-04-03T00:09:13;4.40;;;1.20;;
51288;SDS011;37372;52.294;5.152;2023-04-03T00:11:45;6.43;;;1.30;;
51288;SDS011;37372;52.294;5.152;2023-04-03T00:14:12;4.25;;;1.00;;
51288;SDS011;37372;52.294;5.152;2023-04-03T00:16:42;5.20;;;1.27;;
51288;SDS011;37372;52.294;5.152;2023-04-03T00:19:09;2.45;;;0.82;;
51288;SDS011;37372;52.294;5.152;2023-04-03T00:21:44;4.80;;;1.05;;
51288;SDS011;37372;52.294;5.152;2023-04-03T00:24:16;4.07;;;1.23;;
51288;SDS011;37372;52.294;5.152;2023-04-03T00:26:45;4.40;;;2.35;;
51288;SDS011;37372;52.294;5.152;2023-04-03T00:29:16;3.70;;;1.33;;
51288;SDS011;37372;52.294;5.152;2023-04-03T00:31:49;4.47;;;1.00;;
51288;SDS011;37372;52.294;5.152;2023-04-03T00:34:15;4.28;;;1.20;;
51288;SDS011;37372;52.294;5.152;2023-04-03T00:36:50;4.88;;;1.15;;
51288;SDS011;37372;52.294;5.152;2023-04-03T00:39:20;3.35;;;0.93;;
51288;SDS011;37372;52.294;5.152;2023-04-03T00:47:06;1.65;;;0.98;;
51288;SDS011;37372;52.294;5.152;2023-04-03T00:49:44;2.53;;;0.93;;
51288;SDS011;37372;52.294;5.152;2023-04-03T00:52:15;3.78;;;1.13;;
51288;SDS011;37372;52.294;5.152;2023-04-03T00:54:43;3.10;;;1.20;;
51288;SDS011;37372;52.294;5.152;2023-04-03T00:57:20;4.70;;;1.35;;
51288;SDS011;37372;52.294;5.152;2023-04-03T00:59:49;2.03;;;0.90;;
51288;SDS011;37372;52.294;5.152;2023-04-03T01:02:17;4.22;;;1.42;;
51288;SDS011;37372;52.294;5.152;2023-04-03T01:04:44;4.22;;;1.10;;
51288;SDS011;37372;52.294;5.152;2023-04-03T01:07:12;2.85;;;1.17;;
51288;SDS011;37372;52.294;5.152;2023-04-03T01:09:42;4.07;;;2.00;;
51288;SDS011;37372;52.294;5.152;2023-04-03T01:12:19;4.25;;;1.73;;
51288;SDS011;37372;52.294;5.152;2023-04-03T01:17:36;2.67;;;1.20;;
51288;SDS011;37372;52.294;5.152;2023-04-03T01:25:43;3.45;;;1.30;;
51288;SDS011;37372;52.294;5.152;2023-04-03T01:28:24;3.95;;;1.48;;
51288;SDS011;37372;52.294;5.152;2023-04-03T01:33:55;4.78;;;1.50;;
51288;SDS011;37372;52.294;5.152;2023-04-03T01:36:28;3.38;;;1.40;;
51288;SDS011;37372;52.294;5.152;2023-04-03T01:38:57;7.45;;;1.73;;
51288;SDS011;37372;52.294;5.152;2023-04-03T01:41:25;10.32;;;1.67;;
51288;SDS011;37372;52.294;5.152;2023-04-03T01:43:55;4.68;;;1.50;;
51288;SDS011;37372;52.294;5.152;2023-04-03T01:46:20;5.03;;;1.40;;
51288;SDS011;37372;52.294;5.152;2023-04-03T01:48:46;10.43;;;2.55;;
51288;SDS011;37372;52.294;5.152;2023-04-03T01:51:12;6.03;;;2.25;;
51288;SDS011;37372;52.294;5.152;2023-04-03T01:53:44;4.30;;;1.17;;
51288;SDS011;37372;52.294;5.152;2023-04-03T01:56:10;5.47;;;1.58;;
51288;SDS011;37372;52.294;5.152;2023-04-03T01:58:36;2.78;;;1.15;;
51288;SDS011;37372;52.294;5.152;2023-04-03T02:01:03;5.25;;;1.48;;
51288;SDS011;37372;52.294;5.152;2023-04-03T02:03:29;5.15;;;1.70;;
51288;SDS011;37372;52.294;5.152;2023-04-03T02:05:55;3.90;;;1.55;;
51288;SDS011;37372;52.294;5.152;2023-04-03T02:08:20;3.13;;;1.20;;
51288;SDS011;37372;52.294;5.152;2023-04-03T02:10:47;5.70;;;1.60;;
51288;SDS011;37372;52.294;5.152;2023-04-03T02:13:14;5.10;;;1.50;;
51288;SDS011;37372;52.294;5.152;2023-04-03T02:15:39;4.85;;;2.05;;
51288;SDS011;37372;52.294;5.152;2023-04-03T02:18:13;5.20;;;1.75;;
51288;SDS011;37372;52.294;5.152;2023-04-03T02:20:39;3.35;;;1.83;;
51288;SDS011;37372;52.294;5.152;2023-04-03T02:23:09;5.88;;;1.85;;
51288;SDS011;37372;52.294;5.152;2023-04-03T02:25:35;2.80;;;1.20;;
51288;SDS011;37372;52.294;5.152;2023-04-03T02:28:04;8.50;;;1.70;;
51288;SDS011;37372;52.294;5.152;2023-04-03T02:30:30;7.88;;;1.83;;
51288;SDS011;37372;52.294;5.152;2023-04-03T02:32:55;4.68;;;1.90;;
51288;SDS011;37372;52.294;5.152;2023-04-03T02:35:21;6.50;;;1.92;;
51288;SDS011;37372;52.294;5.152;2023-04-03T02:37:46;8.55;;;1.95;;
51288;SDS011;37372;52.294;5.152;2023-04-03T02:40:12;6.43;;;1.63;;
51288;SDS011;37372;52.294;5.152;2023-04-03T02:42:39;5.15;;;1.75;;
51288;SDS011;37372;52.294;5.152;2023-04-03T02:45:05;7.70;;;2.08;;
51288;SDS011;37372;52.294;5.152;2023-04-03T02:47:31;8.93;;;2.08;;
51288;SDS011;37372;52.294;5.152;2023-04-03T02:49:56;3.50;;;1.77;;
51288;SDS011;37372;52.294;5.152;2023-04-03T02:52:22;4.80;;;1.80;;
51288;SDS011;37372;52.294;5.152;2023-04-03T02:54:47;6.32;;;1.40;;
51288;SDS011;37372;52.294;5.152;2023-04-03T02:57:13;4.75;;;1.50;;
51288;SDS011;37372;52.294;5.152;2023-04-03T02:59:40;3.05;;;1.50;;
51288;SDS011;37372;52.294;5.152;2023-04-03T03:05:01;5.15;;;2.45;;
51288;SDS011;37372;52.294;5.152;2023-04-03T03:07:29;6.75;;;1.70;;
51288;SDS011;37372;52.294;5.152;2023-04-03T03:09:55;3.95;;;1.48;;
51288;SDS011;37372;52.294;5.152;2023-04-03T03:12:20;7.32;;;2.13;;
51288;SDS011;37372;52.294;5.152;2023-04-03T03:14:50;6.28;;;1.95;;
51288;SDS011;37372;52.294;5.152;2023-04-03T03:17:25;6.30;;;1.48;;
51288;SDS011;37372;52.294;5.152;2023-04-03T03:19:51;6.53;;;2.03;;
51288;SDS011;37372;52.294;5.152;2023-04-03T03:22:21;8.25;;;2.13;;
51288;SDS011;37372;52.294;5.152;2023-04-03T03:24:51;3.58;;;1.55;;
51288;SDS011;37372;52.294;5.152;2023-04-03T03:27:19;4.10;;;2.13;;
51288;SDS011;37372;52.294;5.152;2023-04-03T03:29:45;6.95;;;3.05;;
51288;SDS011;37372;52.294;5.152;2023-04-03T03:32:22;8.40;;;2.22;;
51288;SDS011;37372;52.294;5.152;2023-04-03T03:34:59;8.23;;;2.00;;
51288;SDS011;37372;52.294;5.152;2023-04-03T03:37:25;6.22;;;2.17;;
51288;SDS011;37372;52.294;5.152;2023-04-03T03:39:52;6.05;;;2.15;;
51288;SDS011;37372;52.294;5.152;2023-04-03T03:45:16;6.53;;;2.33;;
51288;SDS011;37372;52.294;5.152;2023-04-03T03:47:41;6.97;;;1.67;;
51288;SDS011;37372;52.294;5.152;2023-04-03T03:50:07;4.10;;;1.77;;
51288;SDS011;37372;52.294;5.152;2023-04-03T03:52:37;5.07;;;1.42;;
51288;SDS011;37372;52.294;5.152;2023-04-03T03:55:03;6.35;;;2.17;;
51288;SDS011;37372;52.294;5.152;2023-04-03T03:57:29;6.07;;;2.22;;
51288;SDS011;37372;52.294;5.152;2023-04-03T03:59:55;6.80;;;1.88;;
51288;SDS011;37372;52.294;5.152;2023-04-03T04:02:34;6.10;;;1.83;;
51288;SDS011;37372;52.294;5.152;2023-04-03T04:05:03;10.82;;;2.08;;
51288;SDS011;37372;52.294;5.152;2023-04-03T04:07:46;6.68;;;2.38;;
51288;SDS011;37372;52.294;5.152;2023-04-03T04:12:51;5.57;;;2.05;;
51288;SDS011;37372;52.294;5.152;2023-04-03T04:15:27;3.92;;;1.83;;
51288;SDS011;37372;52.294;5.152;2023-04-03T04:17:52;5.82;;;1.98;;
51288;SDS011;37372;52.294;5.152;2023-04-03T04:20:18;7.25;;;2.00;;
51288;SDS011;37372;52.294;5.152;2023-04-03T04:22:47;8.85;;;2.38;;
51288;SDS011;37372;52.294;5.152;2023-04-03T04:25:12;6.65;;;2.20;;
51288;SDS011;37372;52.294;5.152;2023-04-03T04:27:38;6.22;;;1.80;;
51288;SDS011;37372;52.294;5.152;2023-04-03T04:30:04;4.70;;;1.58;;
51288;SDS011;37372;52.294;5.152;2023-04-03T04:32:41;4.38;;;2.00;;
51288;SDS011;37372;52.294;5.152;2023-04-03T04:35:15;6.82;;;2.17;;
51288;SDS011;37372;52.294;5.152;2023-04-03T04:37:42;11.27;;;2.45;;
51288;SDS011;37372;52.294;5.152;2023-04-03T04:40:08;4.28;;;1.90;;
51288;SDS011;37372;52.294;5.152;2023-04-03T04:42:37;5.18;;;1.70;;
51288;SDS011;37372;52.294;5.152;2023-04-03T04:45:08;6.07;;;2.33;;
51288;SDS011;37372;52.294;5.152;2023-04-03T04:47:35;5.47;;;1.92;;
51288;SDS011;37372;52.294;5.152;2023-04-03T04:50:05;10.45;;;2.58;;
51288;SDS011;37372;52.294;5.152;2023-04-03T04:52:43;7.97;;;1.90;;
51288;SDS011;37372;52.294;5.152;2023-04-03T04:55:13;8.05;;;3.00;;
51288;SDS011;37372;52.294;5.152;2023-04-03T04:57:48;3.45;;;1.90;;
51288;SDS011;37372;52.294;5.152;2023-04-03T05:00:13;6.75;;;2.17;;
51288;SDS011;37372;52.294;5.152;2023-04-03T05:02:40;10.60;;;2.15;;
51288;SDS011;37372;52.294;5.152;2023-04-03T05:05:07;7.15;;;2.00;;
51288;SDS011;37372;52.294;5.152;2023-04-03T05:07:40;6.25;;;1.90;;
51288;SDS011;37372;52.294;5.152;2023-04-03T05:10:13;7.20;;;1.88;;
51288;SDS011;37372;52.294;5.152;2023-04-03T05:12:45;8.50;;;2.40;;
51288;SDS011;37372;52.294;5.152;2023-04-03T05:15:13;6.72;;;2.00;;
51288;SDS011;37372;52.294;5.152;2023-04-03T05:17:39;6.20;;;2.33;;
51288;SDS011;37372;52.294;5.152;2023-04-03T05:20:08;6.20;;;2.15;;
51288;SDS011;37372;52.294;5.152;2023-04-03T05:22:43;11.45;;;3.50;;
51288;SDS011;37372;52.294;5.152;2023-04-03T05:25:14;6.13;;;2.47;;
51288;SDS011;37372;52.294;5.152;2023-04-03T05:27:46;6.40;;;2.28;;
51288;SDS011;37372;52.294;5.152;2023-04-03T05:30:15;7.97;;;2.28;;
51288;SDS011;37372;52.294;5.152;2023-04-03T05:32:47;11.73;;;2.95;;
51288;SDS011;37372;52.294;5.152;2023-04-03T05:35:15;8.00;;;1.92;;
51288;SDS011;37372;52.294;5.152;2023-04-03T05:40:35;7.82;;;2.15;;
51288;SDS011;37372;52.294;5.152;2023-04-03T05:43:01;7.93;;;2.17;;
51288;SDS011;37372;52.294;5.152;2023-04-03T05:45:26;5.63;;;2.20;;
51288;SDS011;37372;52.294;5.152;2023-04-03T05:47:52;5.72;;;1.90;;
51288;SDS011;37372;52.294;5.152;2023-04-03T05:50:21;9.25;;;2.92;;
51288;SDS011;37372;52.294;5.152;2023-04-03T05:52:50;10.57;;;2.15;;
51288;SDS011;37372;52.294;5.152;2023-04-03T05:55:21;6.35;;;2.05;;
51288;SDS011;37372;52.294;5.152;2023-04-03T05:57:48;5.38;;;1.70;;
51288;SDS011;37372;52.294;5.152;2023-04-03T06:00:15;8.65;;;2.35;;
51288;SDS011;37372;52.294;5.152;2023-04-03T06:02:47;6.80;;;2.30;;
51288;SDS011;37372;52.294;5.152;2023-04-03T06:05:18;5.07;;;1.98;;
51288;SDS011;37372;52.294;5.152;2023-04-03T06:08:03;7.53;;;2.15;;
51288;SDS011;37372;52.294;5.152;2023-04-03T06:10:29;7.13;;;2.25;;
51288;SDS011;37372;52.294;5.152;2023-04-03T06:12:56;6.70;;;2.20;;
51288;SDS011;37372;52.294;5.152;2023-04-03T06:15:22;5.75;;;1.52;;
51288;SDS011;37372;52.294;5.152;2023-04-03T06:17:53;5.22;;;1.58;;
51288;SDS011;37372;52.294;5.152;2023-04-03T06:20:21;8.32;;;2.38;;
51288;SDS011;37372;52.294;5.152;2023-04-03T06:22:52;7.15;;;1.67;;
51288;SDS011;37372;52.294;5.152;2023-04-03T06:25:30;6.00;;;1.67;;
51288;SDS011;37372;52.294;5.152;2023-04-03T06:27:56;7.38;;;1.95;;
51288;SDS011;37372;52.294;5.152;2023-04-03T06:30:22;5.82;;;1.80;;
51288;SDS011;37372;52.294;5.152;2023-04-03T06:32:52;3.95;;;1.20;;
51288;SDS011;37372;52.294;5.152;2023-04-03T06:35:18;6.13;;;2.22;;
51288;SDS011;37372;52.294;5.152;2023-04-03T06:37:44;7.30;;;1.80;;
51288;SDS011;37372;52.294;5.152;2023-04-03T06:40:25;5.43;;;1.73;;
51288;SDS011;37372;52.294;5.152;2023-04-03T06:42:53;4.43;;;1.85;;
51288;SDS011;37372;52.294;5.152;2023-04-03T06:45:36;3.95;;;1.70;;
51288;SDS011;37372;52.294;5.152;2023-04-03T06:48:01;5.72;;;2.53;;
51288;SDS011;37372;52.294;5.152;2023-04-03T06:50:27;6.40;;;1.70;;
51288;SDS011;37372;52.294;5.152;2023-04-03T06:52:56;6.50;;;1.73;;
51288;SDS011;37372;52.294;5.152;2023-04-03T06:55:32;5.15;;;1.70;;
51288;SDS011;37372;52.294;5.152;2023-04-03T06:58:30;9.07;;;1.70;;
51288;SDS011;37372;52.294;5.152;2023-04-03T07:00:50;7.10;;;1.60;;
51288;SDS011;37372;52.294;5.152;2023-04-03T07:03:16;4.90;;;2.00;;
51288;SDS011;37372;52.294;5.152;2023-04-03T07:05:42;5.07;;;1.65;;
51288;SDS011;37372;52.294;5.152;2023-04-03T07:08:09;6.65;;;2.42;;
51288;SDS011;37372;52.294;5.152;2023-04-03T07:10:35;9.77;;;2.67;;
51288;SDS011;37372;52.294;5.152;2023-04-03T07:13:00;10.77;;;2.65;;
51288;SDS011;37372;52.294;5.152;2023-04-03T07:15:26;4.43;;;1.50;;
51288;SDS011;37372;52.294;5.152;2023-04-03T07:18:01;8.63;;;1.83;;
51288;SDS011;37372;52.294;5.152;2023-04-03T07:20:30;6.88;;;1.92;;
51288;SDS011;37372;52.294;5.152;2023-04-03T07:22:56;12.25;;;2.00;;
51288;SDS011;37372;52.294;5.152;2023-04-03T07:25:29;7.15;;;1.77;;
51288;SDS011;37372;52.294;5.152;2023-04-03T07:28:01;2.85;;;1.27;;
51288;SDS011;37372;52.294;5.152;2023-04-03T07:30:33;9.27;;;1.80;;
51288;SDS011;37372;52.294;5.152;2023-04-03T07:32:58;8.57;;;2.08;;
51288;SDS011;37372;52.294;5.152;2023-04-03T07:35:31;9.25;;;1.95;;
51288;SDS011;37372;52.294;5.152;2023-04-03T07:40:47;6.78;;;1.75;;
51288;SDS011;37372;52.294;5.152;2023-04-03T07:43:16;5.97;;;1.58;;
51288;SDS011;37372;52.294;5.152;2023-04-03T07:45:50;4.78;;;1.45;;
51288;SDS011;37372;52.294;5.152;2023-04-03T07:48:17;10.05;;;2.92;;
51288;SDS011;37372;52.294;5.152;2023-04-03T07:50:44;5.07;;;1.52;;
51288;SDS011;37372;52.294;5.152;2023-04-03T07:53:10;4.20;;;1.67;;
51288;SDS011;37372;52.294;5.152;2023-04-03T07:55:36;7.38;;;1.50;;
51288;SDS011;37372;52.294;5.152;2023-04-03T07:58:12;12.35;;;1.23;;
51288;SDS011;37372;52.294;5.152;2023-04-03T08:00:40;5.47;;;1.67;;
51288;SDS011;37372;52.294;5.152;2023-04-03T08:03:09;5.22;;;1.40;;
51288;SDS011;37372;52.294;5.152;2023-04-03T08:06:07;4.90;;;1.40;;
51288;SDS011;37372;52.294;5.152;2023-04-03T08:08:34;9.07;;;2.03;;
51288;SDS011;37372;52.294;5.152;2023-04-03T08:11:06;4.95;;;1.63;;
51288;SDS011;37372;52.294;5.152;2023-04-03T08:13:33;5.97;;;2.53;;
51288;SDS011;37372;52.294;5.152;2023-04-03T08:16:10;5.57;;;1.35;;
51288;SDS011;37372;52.294;5.152;2023-04-03T08:18:38;6.78;;;1.67;;
51288;SDS011;37372;52.294;5.152;2023-04-03T08:21:10;5.88;;;1.30;;
51288;SDS011;37372;52.294;5.152;2023-04-03T08:23:39;2.75;;;0.85;;
51288;SDS011;37372;52.294;5.152;2023-04-03T08:26:10;5.85;;;1.15;;
51288;SDS011;37372;52.294;5.152;2023-04-03T08:28:41;3.22;;;1.15;;
51288;SDS011;37372;52.294;5.152;2023-04-03T08:31:08;5.30;;;1.52;;
51288;SDS011;37372;52.294;5.152;2023-04-03T08:33:37;5.10;;;1.27;;
51288;SDS011;37372;52.294;5.152;2023-04-03T08:36:04;3.42;;;1.10;;
51288;SDS011;37372;52.294;5.152;2023-04-03T08:38:32;4.78;;;1.20;;
51288;SDS011;37372;52.294;5.152;2023-04-03T08:41:09;4.22;;;1.10;;
51288;SDS011;37372;52.294;5.152;2023-04-03T08:43:40;4.20;;;1.08;;
51288;SDS011;37372;52.294;5.152;2023-04-03T08:52:04;5.43;;;0.90;;
51288;SDS011;37372;52.294;5.152;2023-04-03T08:54:48;5.35;;;1.20;;
51288;SDS011;37372;52.294;5.152;2023-04-03T08:57:32;5.03;;;1.60;;
51288;SDS011;37372;52.294;5.152;2023-04-03T09:00:16;5.47;;;1.65;;
51288;SDS011;37372;52.294;5.152;2023-04-03T09:02:47;10.07;;;1.52;;
51288;SDS011;37372;52.294;5.152;2023-04-03T09:05:19;4.25;;;1.45;;
51288;SDS011;37372;52.294;5.152;2023-04-03T09:07:55;4.15;;;1.13;;
51288;SDS011;37372;52.294;5.152;2023-04-03T09:10:32;3.05;;;0.90;;
51288;SDS011;37372;52.294;5.152;2023-04-03T09:15:57;2.30;;;0.60;;
51288;SDS011;37372;52.294;5.152;2023-04-03T09:21:32;6.20;;;0.90;;
51288;SDS011;37372;52.294;5.152;2023-04-03T09:24:02;2.38;;;1.75;;
51288;SDS011;37372;52.294;5.152;2023-04-03T09:26:44;3.00;;;0.80;;
51288;SDS011;37372;52.294;5.152;2023-04-03T09:29:19;2.35;;;0.50;;
51288;SDS011;37372;52.294;5.152;2023-04-03T09:32:19;2.08;;;0.50;;
51288;SDS011;37372;52.294;5.152;2023-04-03T09:34:43;3.70;;;0.90;;
51288;SDS011;37372;52.294;5.152;2023-04-03T09:37:10;2.05;;;0.57;;
51288;SDS011;37372;52.294;5.152;2023-04-03T09:40:27;2.25;;;0.50;;
51288;SDS011;37372;52.294;5.152;2023-04-03T09:46:16;0.77;;;0.45;;
51288;SDS011;37372;52.294;5.152;2023-04-03T09:48:51;1.20;;;0.50;;
51288;SDS011;37372;52.294;5.152;2023-04-03T09:51:24;1.40;;;0.50;;
51288;SDS011;37372;52.294;5.152;2023-04-03T09:57:02;0.93;;;0.50;;
51288;SDS011;37372;52.294;5.152;2023-04-03T09:59:32;2.10;;;0.70;;
51288;SDS011;37372;52.294;5.152;2023-04-03T10:01:58;3.20;;;0.70;;
51288;SDS011;37372;52.294;5.152;2023-04-03T10:04:38;1.80;;;0.50;;
51288;SDS011;37372;52.294;5.152;2023-04-03T10:07:25;2.95;;;0.68;;
51288;SDS011;37372;52.294;5.152;2023-04-03T10:12:45;2.20;;;0.52;;
51288;SDS011;37372;52.294;5.152;2023-04-03T10:15:15;1.42;;;0.40;;
51288;SDS011;37372;52.294;5.152;2023-04-03T10:20:50;3.42;;;0.95;;
51288;SDS011;37372;52.294;5.152;2023-04-03T10:23:18;1.17;;;0.50;;
51288;SDS011;37372;52.294;5.152;2023-04-03T10:26:15;1.85;;;0.30;;
51288;SDS011;37372;52.294;5.152;2023-04-03T10:31:38;1.42;;;0.50;;
51288;SDS011;37372;52.294;5.152;2023-04-03T10:34:28;1.45;;;0.40;;
51288;SDS011;37372;52.294;5.152;2023-04-03T10:46:27;1.75;;;0.45;;
51288;SDS011;37372;52.294;5.152;2023-04-03T10:49:10;1.27;;;0.50;;
51288;SDS011;37372;52.294;5.152;2023-04-03T10:51:56;1.95;;;0.60;;
51288;SDS011;37372;52.294;5.152;2023-04-03T10:57:37;1.25;;;0.45;;
51288;SDS011;37372;52.294;5.152;2023-04-03T11:00:19;2.38;;;0.50;;
51288;SDS011;37372;52.294;5.152;2023-04-03T11:03:03;2.30;;;0.70;;
51288;SDS011;37372;52.294;5.152;2023-04-03T11:05:45;2.05;;;0.50;;
51288;SDS011;37372;52.294;5.152;2023-04-03T11:11:24;1.48;;;0.50;;
51288;SDS011;37372;52.294;5.152;2023-04-03T11:16:44;4.03;;;0.80;;
51288;SDS011;37372;52.294;5.152;2023-04-03T11:19:27;2.50;;;0.90;;
51288;SDS011;37372;52.294;5.152;2023-04-03T11:22:06;1.67;;;0.60;;
51288;SDS011;37372;52.294;5.152;2023-04-03T11:24:42;3.53;;;0.70;;
51288;SDS011;37372;52.294;5.152;2023-04-03T11:27:17;3.25;;;0.55;;
51288;SDS011;37372;52.294;5.152;2023-04-03T11:29:47;2.85;;;0.50;;
51288;SDS011;37372;52.294;5.152;2023-04-03T11:35:20;6.25;;;1.13;;
51288;SDS011;37372;52.294;5.152;2023-04-03T11:37:50;3.35;;;0.70;;
51288;SDS011;37372;52.294;5.152;2023-04-03T11:51:47;2.10;;;1.02;;
51288;SDS011;37372;52.294;5.152;2023-04-03T11:54:36;2.78;;;0.70;;
51288;SDS011;37372;52.294;5.152;2023-04-03T12:17:02;2.17;;;0.60;;
51288;SDS011;37372;52.294;5.152;2023-04-03T12:23:29;3.95;;;1.02;;
51288;SDS011;37372;52.294;5.152;2023-04-03T12:47:00;4.38;;;0.88;;
51288;SDS011;37372;52.294;5.152;2023-04-03T12:49:56;2.38;;;0.63;;
51288;SDS011;37372;52.294;5.152;2023-04-03T12:52:41;3.40;;;0.60;;
51288;SDS011;37372;52.294;5.152;2023-04-03T12:58:24;4.28;;;0.85;;
51288;SDS011;37372;52.294;5.152;2023-04-03T13:03:39;3.08;;;1.08;;
51288;SDS011;37372;52.294;5.152;2023-04-03T13:06:19;1.92;;;0.73;;
51288;SDS011;37372;52.294;5.152;2023-04-03T13:08:53;3.45;;;1.00;;
51288;SDS011;37372;52.294;5.152;2023-04-03T13:11:25;2.40;;;0.90;;
51288;SDS011;37372;52.294;5.152;2023-04-03T13:14:14;1.98;;;0.63;;
51288;SDS011;37372;52.294;5.152;2023-04-03T13:20:40;1.70;;;0.57;;
51288;SDS011;37372;52.294;5.152;2023-04-03T13:23:05;2.25;;;0.80;;
51288;SDS011;37372;52.294;5.152;2023-04-03T13:25:40;2.17;;;0.88;;
51288;SDS011;37372;52.294;5.152;2023-04-03T13:28:22;3.60;;;0.63;;
51288;SDS011;37372;52.294;5.152;2023-04-03T13:33:52;2.45;;;0.73;;
51288;SDS011;37372;52.294;5.152;2023-04-03T13:40:03;2.63;;;0.70;;
51288;SDS011;37372;52.294;5.152;2023-04-03T13:42:33;2.25;;;0.77;;
51288;SDS011;37372;52.294;5.152;2023-04-03T13:48:35;3.05;;;0.85;;
51288;SDS011;37372;52.294;5.152;2023-04-03T13:51:13;2.65;;;0.82;;
51288;SDS011;37372;52.294;5.152;2023-04-03T13:53:50;2.92;;;0.90;;
51288;SDS011;37372;52.294;5.152;2023-04-03T13:59:01;2.47;;;0.70;;
51288;SDS011;37372;52.294;5.152;2023-04-03T14:04:49;4.22;;;0.80;;
51288;SDS011;37372;52.294;5.152;2023-04-03T14:07:25;3.95;;;0.77;;
51288;SDS011;37372;52.294;5.152;2023-04-03T14:09:51;4.28;;;0.70;;
51288;SDS011;37372;52.294;5.152;2023-04-03T14:12:21;2.17;;;0.75;;
51288;SDS011;37372;52.294;5.152;2023-04-03T14:14:52;3.07;;;1.23;;
51288;SDS011;37372;52.294;5.152;2023-04-03T14:17:41;2.42;;;0.90;;
51288;SDS011;37372;52.294;5.152;2023-04-03T14:20:20;8.52;;;1.55;;
51288;SDS011;37372;52.294;5.152;2023-04-03T14:22:51;6.70;;;0.70;;
51288;SDS011;37372;52.294;5.152;2023-04-03T14:25:19;1.88;;;0.80;;
51288;SDS011;37372;52.294;5.152;2023-04-03T14:30:51;3.97;;;1.38;;
51288;SDS011;37372;52.294;5.152;2023-04-03T14:33:26;3.38;;;0.85;;
51288;SDS011;37372;52.294;5.152;2023-04-03T14:35:53;4.18;;;0.98;;
51288;SDS011;37372;52.294;5.152;2023-04-03T14:38:24;2.70;;;0.80;;
51288;SDS011;37372;52.294;5.152;2023-04-03T14:40:51;1.05;;;0.57;;
51288;SDS011;37372;52.294;5.152;2023-04-03T14:43:18;2.88;;;1.00;;
51288;SDS011;37372;52.294;5.152;2023-04-03T14:45:48;4.68;;;1.17;;
51288;SDS011;37372;52.294;5.152;2023-04-03T14:48:21;5.47;;;1.08;;
51288;SDS011;37372;52.294;5.152;2023-04-03T14:56:31;3.50;;;0.60;;
51288;SDS011;37372;52.294;5.152;2023-04-03T14:59:00;1.35;;;0.75;;
51288;SDS011;37372;52.294;5.152;2023-04-03T15:01:27;2.75;;;0.70;;
51288;SDS011;37372;52.294;5.152;2023-04-03T15:04:16;2.67;;;0.90;;
51288;SDS011;37372;52.294;5.152;2023-04-03T15:07:48;2.40;;;0.93;;
51288;SDS011;37372;52.294;5.152;2023-04-03T15:09:56;5.70;;;1.33;;
51288;SDS011;37372;52.294;5.152;2023-04-03T15:12:23;3.58;;;0.90;;
51288;SDS011;37372;52.294;5.152;2023-04-03T15:14:52;2.97;;;0.73;;
51288;SDS011;37372;52.294;5.152;2023-04-03T15:21:12;8.32;;;1.60;;
51288;SDS011;37372;52.294;5.152;2023-04-03T15:23:38;2.78;;;1.10;;
51288;SDS011;37372;52.294;5.152;2023-04-03T15:26:04;2.60;;;0.73;;
51288;SDS011;37372;52.294;5.152;2023-04-03T15:28:36;2.78;;;0.85;;
51288;SDS011;37372;52.294;5.152;2023-04-03T15:31:04;3.08;;;0.82;;
51288;SDS011;37372;52.294;5.152;2023-04-03T15:33:30;1.45;;;0.50;;
51288;SDS011;37372;52.294;5.152;2023-04-03T15:35:56;4.10;;;1.25;;
51288;SDS011;37372;52.294;5.152;2023-04-03T15:38:22;3.65;;;1.25;;
51288;SDS011;37372;52.294;5.152;2023-04-03T15:40:49;9.38;;;0.80;;
51288;SDS011;37372;52.294;5.152;2023-04-03T15:43:15;3.88;;;0.82;;
51288;SDS011;37372;52.294;5.152;2023-04-03T15:46:05;3.63;;;1.55;;
51288;SDS011;37372;52.294;5.152;2023-04-03T15:48:31;3.65;;;0.90;;
51288;SDS011;37372;52.294;5.152;2023-04-03T15:51:01;4.68;;;1.10;;
51288;SDS011;37372;52.294;5.152;2023-04-03T15:56:08;4.93;;;1.17;;
51288;SDS011;37372;52.294;5.152;2023-04-03T15:58:34;3.38;;;0.90;;
51288;SDS011;37372;52.294;5.152;2023-04-03T16:01:03;5.07;;;0.82;;
51288;SDS011;37372;52.294;5.152;2023-04-03T16:03:31;2.40;;;0.70;;
51288;SDS011;37372;52.294;5.152;2023-04-03T16:05:57;3.35;;;0.98;;
51288;SDS011;37372;52.294;5.152;2023-04-03T16:08:23;1.83;;;0.98;;
51288;SDS011;37372;52.294;5.152;2023-04-03T16:10:50;3.00;;;0.82;;
51288;SDS011;37372;52.294;5.152;2023-04-03T16:13:27;3.85;;;1.15;;
51288;SDS011;37372;52.294;5.152;2023-04-03T16:16:03;2.85;;;1.00;;
51288;SDS011;37372;52.294;5.152;2023-04-03T16:18:32;4.80;;;1.02;;
51288;SDS011;37372;52.294;5.152;2023-04-03T16:21:00;6.38;;;1.98;;
51288;SDS011;37372;52.294;5.152;2023-04-03T16:23:32;2.25;;;0.77;;
51288;SDS011;37372;52.294;5.152;2023-04-03T16:26:08;3.75;;;1.33;;
51288;SDS011;37372;52.294;5.152;2023-04-03T16:28:57;4.47;;;1.17;;
51288;SDS011;37372;52.294;5.152;2023-04-03T16:31:30;5.13;;;1.70;;
51288;SDS011;37372;52.294;5.152;2023-04-03T16:34:13;6.80;;;1.35;;
51288;SDS011;37372;52.294;5.152;2023-04-03T16:36:39;3.85;;;1.40;;
51288;SDS011;37372;52.294;5.152;2023-04-03T16:39:05;4.75;;;1.15;;
51288;SDS011;37372;52.294;5.152;2023-04-03T16:41:31;6.03;;;1.70;;
51288;SDS011;37372;52.294;5.152;2023-04-03T16:44:18;4.15;;;1.13;;
51288;SDS011;37372;52.294;5.152;2023-04-03T16:46:56;4.55;;;1.58;;
51288;SDS011;37372;52.294;5.152;2023-04-03T16:52:38;2.92;;;0.90;;
51288;SDS011;37372;52.294;5.152;2023-04-03T16:58:24;4.47;;;1.35;;
51288;SDS011;37372;52.294;5.152;2023-04-03T17:00:56;4.68;;;1.25;;
51288;SDS011;37372;52.294;5.152;2023-04-03T17:03:21;6.45;;;1.30;;
51288;SDS011;37372;52.294;5.152;2023-04-03T17:05:53;3.33;;;0.80;;
51288;SDS011;37372;52.294;5.152;2023-04-03T17:08:19;3.72;;;1.42;;
51288;SDS011;37372;52.294;5.152;2023-04-03T17:10:46;4.68;;;1.25;;
51288;SDS011;37372;52.294;5.152;2023-04-03T17:13:12;5.93;;;1.73;;
51288;SDS011;37372;52.294;5.152;2023-04-03T17:15:38;5.28;;;1.48;;
51288;SDS011;37372;52.294;5.152;2023-04-03T17:18:07;4.15;;;1.40;;
51288;SDS011;37372;52.294;5.152;2023-04-03T17:20:42;3.75;;;0.95;;
51288;SDS011;37372;52.294;5.152;2023-04-03T17:23:08;5.07;;;0.90;;
51288;SDS011;37372;52.294;5.152;2023-04-03T17:25:38;3.97;;;1.00;;
51288;SDS011;37372;52.294;5.152;2023-04-03T17:31:05;3.90;;;1.35;;
51288;SDS011;37372;52.294;5.152;2023-04-03T17:33:39;2.72;;;1.00;;
51288;SDS011;37372;52.294;5.152;2023-04-03T17:36:19;7.00;;;1.38;;
51288;SDS011;37372;52.294;5.152;2023-04-03T17:38:45;3.25;;;1.13;;
51288;SDS011;37372;52.294;5.152;2023-04-03T17:41:12;4.72;;;1.45;;
51288;SDS011;37372;52.294;5.152;2023-04-03T17:46:23;4.25;;;1.38;;
51288;SDS011;37372;52.294;5.152;2023-04-03T17:48:50;3.92;;;1.23;;
51288;SDS011;37372;52.294;5.152;2023-04-03T17:51:18;5.47;;;1.25;;
51288;SDS011;37372;52.294;5.152;2023-04-03T17:53:46;4.13;;;1.55;;
51288;SDS011;37372;52.294;5.152;2023-04-03T17:56:17;3.15;;;1.15;;
51288;SDS011;37372;52.294;5.152;2023-04-03T17:58:47;3.33;;;1.08;;
51288;SDS011;37372;52.294;5.152;2023-04-03T18:01:15;3.10;;;1.10;;
51288;SDS011;37372;52.294;5.152;2023-04-03T18:04:27;3.33;;;1.05;;
51288;SDS011;37372;52.294;5.152;2023-04-03T18:06:55;5.63;;;1.08;;
51288;SDS011;37372;52.294;5.152;2023-04-03T18:09:21;4.97;;;1.08;;
51288;SDS011;37372;52.294;5.152;2023-04-03T18:12:04;4.88;;;1.17;;
51288;SDS011;37372;52.294;5.152;2023-04-03T18:14:36;5.28;;;1.00;;
51288;SDS011;37372;52.294;5.152;2023-04-03T18:17:16;4.47;;;1.17;;
51288;SDS011;37372;52.294;5.152;2023-04-03T18:19:50;4.43;;;1.30;;
51288;SDS011;37372;52.294;5.152;2023-04-03T18:22:16;3.08;;;1.27;;